createdAt,value
2019-01-22T00:00:52.694Z,55.60
2019-01-22T00:01:52.733Z,52.90
2019-01-22T00:02:52.770Z,52.20
2019-01-22T00:03:52.789Z,52.70
2019-01-22T00:04:52.820Z,53.00
2019-01-22T00:05:52.854Z,54.40
2019-01-22T00:06:52.886Z,57.10
2019-01-22T00:07:52.916Z,55.60
2019-01-22T00:08:52.947Z,50.90
2019-01-22T00:09:52.993Z,52.00
2019-01-22T00:10:53.011Z,52.90
2019-01-22T00:11:53.044Z,52.90
2019-01-22T00:12:53.074Z,57.60
2019-01-22T00:13:53.104Z,55.20
2019-01-22T00:14:53.136Z,52.90
2019-01-22T00:15:53.173Z,55.70
2019-01-22T00:16:53.202Z,53.50
2019-01-22T00:17:53.231Z,54.30
2019-01-22T00:18:53.270Z,54.50
2019-01-22T00:19:53.294Z,51.60
2019-01-22T00:20:53.327Z,54.60
2019-01-22T00:21:53.356Z,53.50
2019-01-22T00:22:53.388Z,50.50
2019-01-22T00:23:53.434Z,53.80
2019-01-22T00:24:53.454Z,54.80
2019-01-22T00:25:53.509Z,53.70
2019-01-22T00:26:53.523Z,51.60
2019-01-22T00:27:53.554Z,51.90
2019-01-22T00:28:53.578Z,53.60
2019-01-22T00:29:53.609Z,51.80
2019-01-22T00:30:53.641Z,51.70
2019-01-22T00:31:53.672Z,57.00
2019-01-22T00:32:53.702Z,56.20
2019-01-22T00:33:53.735Z,54.50
2019-01-22T00:34:53.770Z,54.10
2019-01-22T00:35:53.808Z,52.20
2019-01-22T00:36:53.838Z,52.90
2019-01-22T00:37:53.862Z,50.60
2019-01-22T00:38:53.894Z,54.30
2019-01-22T00:39:53.926Z,54.70
2019-01-22T00:40:53.955Z,52.70
2019-01-22T00:41:53.987Z,55.10
2019-01-22T00:42:54.021Z,50.90
2019-01-22T00:43:54.051Z,54.20
2019-01-22T00:44:54.082Z,53.70
2019-01-22T00:45:54.113Z,52.90
2019-01-22T00:46:54.145Z,51.00
2019-01-22T00:47:54.179Z,53.10
2019-01-22T00:48:54.210Z,47.00
2019-01-22T00:49:54.239Z,52.30
2019-01-22T00:50:54.271Z,52.90
2019-01-22T00:51:54.304Z,51.80
2019-01-22T00:52:54.335Z,51.20
2019-01-22T00:53:54.373Z,52.00
2019-01-22T00:54:54.396Z,55.70
2019-01-22T00:55:54.429Z,51.40
2019-01-22T00:56:54.460Z,52.00
2019-01-22T00:57:54.492Z,52.30
2019-01-22T00:58:54.522Z,55.70
2019-01-22T00:59:54.557Z,54.30
2019-01-22T01:00:54.585Z,52.00
2019-01-22T01:01:54.616Z,54.50
2019-01-22T01:02:54.658Z,53.50
2019-01-22T01:03:54.681Z,54.90
2019-01-22T01:04:54.711Z,50.40
2019-01-22T01:05:54.743Z,51.60
2019-01-22T01:06:54.775Z,50.40
2019-01-22T01:07:54.809Z,50.50
2019-01-22T01:08:54.847Z,53.50
2019-01-22T01:09:54.882Z,50.60
2019-01-22T01:10:54.903Z,50.00
2019-01-22T01:11:54.934Z,51.50
2019-01-22T01:12:54.965Z,53.10
2019-01-22T01:13:55.005Z,49.90
2019-01-22T01:14:55.027Z,50.70
2019-01-22T01:15:55.060Z,50.50
2019-01-22T01:16:55.089Z,51.80
2019-01-22T01:17:55.122Z,52.70
2019-01-22T01:18:55.163Z,50.60
2019-01-22T01:19:55.186Z,52.50
2019-01-22T01:20:55.215Z,49.90
2019-01-22T01:21:55.247Z,48.20
2019-01-22T01:22:55.279Z,51.30
2019-01-22T01:23:55.312Z,50.20
2019-01-22T01:24:55.358Z,49.80
2019-01-22T01:25:55.379Z,53.70
2019-01-22T01:26:55.406Z,52.20
2019-01-22T01:27:55.439Z,49.30
2019-01-22T01:28:55.470Z,52.10
2019-01-22T01:29:55.501Z,51.00
2019-01-22T01:30:55.535Z,51.00
2019-01-22T01:31:55.565Z,52.60
2019-01-22T01:32:55.600Z,51.10
2019-01-22T01:33:55.625Z,50.60
2019-01-22T01:34:55.656Z,52.30
2019-01-22T01:35:55.687Z,46.40
2019-01-22T01:36:55.722Z,52.40
2019-01-22T01:37:55.750Z,51.40
2019-01-22T01:38:55.782Z,52.50
2019-01-22T01:39:55.814Z,51.20
2019-01-22T01:40:55.844Z,47.90
2019-01-22T01:41:55.881Z,51.50
2019-01-22T01:42:55.908Z,53.70
2019-01-22T01:43:55.939Z,50.70
2019-01-22T01:44:55.970Z,47.30
2019-01-22T01:45:56.002Z,49.90
2019-01-22T01:46:56.033Z,47.00
2019-01-22T01:47:56.065Z,52.20
2019-01-22T01:48:56.096Z,54.20
2019-01-22T01:49:56.128Z,51.20
2019-01-22T01:50:56.160Z,51.40
2019-01-22T01:51:56.190Z,51.30
2019-01-22T01:52:56.232Z,51.10
2019-01-22T01:53:56.254Z,49.60
2019-01-22T01:54:56.297Z,52.00
2019-01-22T01:55:56.319Z,52.10
2019-01-22T01:56:56.346Z,49.00
2019-01-22T01:57:56.379Z,50.30
2019-01-22T01:58:56.410Z,48.10
2019-01-22T01:59:56.441Z,49.70
2019-01-22T02:00:56.474Z,50.50
2019-01-22T02:01:56.505Z,50.70
2019-01-22T02:02:56.538Z,50.40
2019-01-22T02:03:56.569Z,50.80
2019-01-22T02:04:56.652Z,50.50
2019-01-22T02:05:56.632Z,52.80
2019-01-22T02:06:56.660Z,51.40
2019-01-22T02:07:56.694Z,50.80
2019-01-22T02:08:56.727Z,52.10
2019-01-22T02:09:56.756Z,52.80
2019-01-22T02:10:56.788Z,53.40
2019-01-22T02:11:56.820Z,54.20
2019-01-22T02:12:56.849Z,53.80
2019-01-22T02:13:56.879Z,52.20
2019-01-22T02:14:56.963Z,51.30
2019-01-22T02:15:56.944Z,52.20
2019-01-22T02:16:56.973Z,49.90
2019-01-22T02:17:57.005Z,50.90
2019-01-22T02:18:57.049Z,51.40
2019-01-22T02:19:57.068Z,54.60
2019-01-22T02:20:57.099Z,50.60
2019-01-22T02:21:57.129Z,51.70
2019-01-22T02:22:57.161Z,51.20
2019-01-22T02:23:57.208Z,55.20
2019-01-22T02:24:57.223Z,49.60
2019-01-22T02:25:57.257Z,50.10
2019-01-22T02:26:57.290Z,45.30
2019-01-22T02:27:57.318Z,55.40
2019-01-22T02:28:57.351Z,49.30
2019-01-22T02:29:57.381Z,49.50
2019-01-22T02:30:57.414Z,53.90
2019-01-22T02:31:57.446Z,51.60
2019-01-22T02:32:57.475Z,52.80
2019-01-22T02:33:57.506Z,53.40
2019-01-22T02:34:57.538Z,53.20
2019-01-22T02:35:57.574Z,53.20
2019-01-22T02:36:57.603Z,52.20
2019-01-22T02:37:57.632Z,51.10
2019-01-22T02:38:57.664Z,49.90
2019-01-22T02:39:57.706Z,49.30
2019-01-22T02:40:57.827Z,50.60
2019-01-22T02:41:57.763Z,50.60
2019-01-22T02:42:57.793Z,53.30
2019-01-22T02:43:57.824Z,55.40
2019-01-22T02:44:57.850Z,48.20
2019-01-22T02:45:57.882Z,48.60
2019-01-22T02:46:57.914Z,50.30
2019-01-22T02:47:57.954Z,53.00
2019-01-22T02:48:57.976Z,53.80
2019-01-22T02:49:58.007Z,52.30
2019-01-22T02:50:58.042Z,52.50
2019-01-22T02:51:58.070Z,51.50
2019-01-22T02:52:58.104Z,52.40
2019-01-22T02:53:58.138Z,51.60
2019-01-22T02:54:58.176Z,47.70
2019-01-22T02:55:58.208Z,51.20
2019-01-22T02:56:58.227Z,53.30
2019-01-22T02:57:58.311Z,47.90
2019-01-22T02:58:58.289Z,52.30
2019-01-22T02:59:58.319Z,49.60
2019-01-22T03:00:58.351Z,51.50
2019-01-22T03:01:58.382Z,51.00
2019-01-22T03:02:58.414Z,52.30
2019-01-22T03:03:58.447Z,51.80
2019-01-22T03:04:58.476Z,50.00
2019-01-22T03:05:58.514Z,50.60
2019-01-22T03:06:58.538Z,49.30
2019-01-22T03:07:58.573Z,49.20
2019-01-22T03:08:58.601Z,53.00
2019-01-22T03:09:58.631Z,53.30
2019-01-22T03:10:58.672Z,49.80
2019-01-22T03:11:58.708Z,51.60
2019-01-22T03:12:58.724Z,53.00
2019-01-22T03:13:58.764Z,51.60
2019-01-22T03:14:58.787Z,51.30
2019-01-22T03:15:58.820Z,51.70
2019-01-22T03:16:58.851Z,53.20
2019-01-22T03:17:58.882Z,52.80
2019-01-22T03:18:58.912Z,53.40
2019-01-22T03:19:58.945Z,53.20
2019-01-22T03:20:58.975Z,50.90
2019-01-22T03:21:59.007Z,50.10
2019-01-22T03:22:59.043Z,51.50
2019-01-22T03:23:59.072Z,49.80
2019-01-22T03:24:59.102Z,51.60
2019-01-22T03:25:59.131Z,52.70
2019-01-22T03:26:59.161Z,50.70
2019-01-22T03:27:59.193Z,49.90
2019-01-22T03:28:59.235Z,53.00
2019-01-22T03:29:59.255Z,50.40
2019-01-22T03:30:59.287Z,52.80
2019-01-22T03:31:59.323Z,51.50
2019-01-22T03:32:59.351Z,50.20
2019-01-22T03:33:59.381Z,54.90
2019-01-22T03:34:59.411Z,50.50
2019-01-22T03:35:59.445Z,55.50
2019-01-22T03:36:59.472Z,55.50
2019-01-22T03:37:59.504Z,51.50
2019-01-22T03:38:59.534Z,52.40
2019-01-22T03:39:59.566Z,50.50
2019-01-22T03:40:59.600Z,54.60
2019-01-22T03:41:59.660Z,50.60
2019-01-22T03:42:59.662Z,53.30
2019-01-22T03:43:59.697Z,48.20
2019-01-22T03:44:59.724Z,49.50
2019-01-22T03:45:59.755Z,55.30
2019-01-22T03:46:59.784Z,52.60
2019-01-22T03:47:59.817Z,52.00
2019-01-22T03:48:59.848Z,48.10
2019-01-22T03:49:59.879Z,53.80
2019-01-22T03:50:59.912Z,53.50
2019-01-22T03:51:59.946Z,54.00
2019-01-22T03:52:59.972Z,51.20
2019-01-22T03:54:00.003Z,50.00
2019-01-22T03:55:00.034Z,50.90
2019-01-22T03:56:00.067Z,53.50
2019-01-22T03:57:00.098Z,51.50
2019-01-22T03:58:00.127Z,51.80
2019-01-22T03:59:00.159Z,50.90
2019-01-22T04:00:00.248Z,51.40
2019-01-22T04:01:00.225Z,51.50
2019-01-22T04:02:00.254Z,54.20
2019-01-22T04:03:00.284Z,53.30
2019-01-22T04:04:00.321Z,50.90
2019-01-22T04:05:00.348Z,52.40
2019-01-22T04:06:00.377Z,54.30
2019-01-22T04:07:00.409Z,49.60
2019-01-22T04:08:00.440Z,51.80
2019-01-22T04:09:00.473Z,51.60
2019-01-22T04:10:00.502Z,54.80
2019-01-22T04:11:00.532Z,53.20
2019-01-22T04:12:00.564Z,52.70
2019-01-22T04:13:00.594Z,51.10
2019-01-22T04:14:00.627Z,54.20
2019-01-22T04:15:00.664Z,53.70
2019-01-22T04:16:00.688Z,51.70
2019-01-22T04:17:00.719Z,53.30
2019-01-22T04:18:00.750Z,53.10
2019-01-22T04:19:00.781Z,54.10
2019-01-22T04:20:00.814Z,54.40
2019-01-22T04:21:00.851Z,52.90
2019-01-22T04:22:00.880Z,52.10
2019-01-22T04:23:00.905Z,49.70
2019-01-22T04:24:01.712Z,49.10
2019-01-22T04:25:00.981Z,52.80
2019-01-22T04:26:00.998Z,53.40
2019-01-22T04:27:01.033Z,54.30
2019-01-22T04:28:01.072Z,52.30
2019-01-22T04:29:01.102Z,51.90
2019-01-22T04:30:01.123Z,51.80
2019-01-22T04:31:01.155Z,51.40
2019-01-22T04:32:01.190Z,51.30
2019-01-22T04:33:01.219Z,51.30
2019-01-22T04:34:01.250Z,50.60
2019-01-22T04:35:01.280Z,50.70
2019-01-22T04:36:01.312Z,51.80
2019-01-22T04:37:01.342Z,49.40
2019-01-22T04:38:01.374Z,50.30
2019-01-22T04:39:01.405Z,49.90
2019-01-22T04:40:01.438Z,53.80
2019-01-22T04:41:01.465Z,49.30
2019-01-22T04:42:01.497Z,48.50
2019-01-22T04:43:01.531Z,54.70
2019-01-22T04:44:01.562Z,51.10
2019-01-22T04:45:01.590Z,53.10
2019-01-22T04:46:01.622Z,49.30
2019-01-22T04:47:01.653Z,53.30
2019-01-22T04:48:01.684Z,53.60
2019-01-22T04:49:01.715Z,52.80
2019-01-22T04:50:01.749Z,53.90
2019-01-22T04:51:01.789Z,50.80
2019-01-22T04:52:01.812Z,48.90
2019-01-22T04:53:01.839Z,52.40
2019-01-22T04:54:09.403Z,48.60
2019-01-22T04:55:01.904Z,49.40
2019-01-22T04:56:01.933Z,50.80
2019-01-22T04:57:01.964Z,48.00
2019-01-22T04:58:01.995Z,51.90
2019-01-22T04:59:02.038Z,49.20
2019-01-22T05:00:02.060Z,52.20
2019-01-22T05:01:02.089Z,51.10
2019-01-22T05:02:02.128Z,50.00
2019-01-22T05:03:02.151Z,50.60
2019-01-22T05:04:02.190Z,47.50
2019-01-22T05:05:02.218Z,50.90
2019-01-22T05:06:02.247Z,49.30
2019-01-22T05:07:02.278Z,49.80
2019-01-22T05:08:02.309Z,51.10
2019-01-22T05:09:02.339Z,53.00
2019-01-22T05:10:02.369Z,51.00
2019-01-22T05:11:02.401Z,49.90
2019-01-22T05:12:02.432Z,48.80
2019-01-22T05:13:02.464Z,48.90
2019-01-22T05:14:02.496Z,52.20
2019-01-22T05:15:02.527Z,49.10
2019-01-22T05:16:02.574Z,49.30
2019-01-22T05:17:02.605Z,52.60
2019-01-22T05:18:02.631Z,54.00
2019-01-22T05:19:02.651Z,50.40
2019-01-22T05:20:02.690Z,52.40
2019-01-22T05:21:02.711Z,51.20
2019-01-22T05:22:02.751Z,47.90
2019-01-22T05:23:02.777Z,50.60
2019-01-22T05:24:02.856Z,52.90
2019-01-22T05:25:02.841Z,55.90
2019-01-22T05:26:02.868Z,51.60
2019-01-22T05:27:02.899Z,49.20
2019-01-22T05:28:02.940Z,50.70
2019-01-22T05:29:02.976Z,54.30
2019-01-22T05:30:02.997Z,51.00
2019-01-22T05:31:03.026Z,53.80
2019-01-22T05:32:03.060Z,51.10
2019-01-22T05:33:03.087Z,56.60
2019-01-22T05:34:03.127Z,51.30
2019-01-22T05:35:03.155Z,52.10
2019-01-22T05:36:03.178Z,55.10
2019-01-22T05:37:03.216Z,54.10
2019-01-22T05:38:03.243Z,56.10
2019-01-22T05:39:03.273Z,51.50
2019-01-22T05:40:03.303Z,53.90
2019-01-22T05:41:03.333Z,55.20
2019-01-22T05:42:03.364Z,55.20
2019-01-22T05:43:03.394Z,63.90
2019-01-22T05:44:03.429Z,55.10
2019-01-22T05:45:03.458Z,60.10
2019-01-22T05:46:03.490Z,57.30
2019-01-22T05:47:03.521Z,56.10
2019-01-22T05:48:03.552Z,53.90
2019-01-22T05:49:03.581Z,56.40
2019-01-22T05:50:03.615Z,55.90
2019-01-22T05:51:03.646Z,56.20
2019-01-22T05:52:03.676Z,59.50
2019-01-22T05:53:03.710Z,61.00
2019-01-22T05:54:03.739Z,62.10
2019-01-22T05:55:03.769Z,66.80
2019-01-22T05:56:03.800Z,61.60
2019-01-22T05:57:03.835Z,63.40
2019-01-22T05:58:03.868Z,59.40
2019-01-22T05:59:03.895Z,56.40
2019-01-22T06:00:03.925Z,60.10
2019-01-22T06:01:03.954Z,56.10
2019-01-22T06:02:03.985Z,59.50
2019-01-22T06:03:04.017Z,56.00
2019-01-22T06:04:04.047Z,56.40
2019-01-22T06:05:04.077Z,54.70
2019-01-22T06:06:04.109Z,58.90
2019-01-22T06:07:04.139Z,62.70
2019-01-22T06:08:04.171Z,61.30
2019-01-22T06:09:04.200Z,62.80
2019-01-22T06:10:04.231Z,67.50
2019-01-22T06:11:04.264Z,65.10
2019-01-22T06:12:04.297Z,68.30
2019-01-22T06:13:04.325Z,67.00
2019-01-22T06:14:04.356Z,63.20
2019-01-22T06:15:04.390Z,62.70
2019-01-22T06:16:04.418Z,62.40
2019-01-22T06:17:04.451Z,58.10
2019-01-22T06:18:04.482Z,54.80
2019-01-22T06:19:04.512Z,56.30
2019-01-22T06:20:04.547Z,57.40
2019-01-22T06:21:04.577Z,54.80
2019-01-22T06:22:04.613Z,53.60
2019-01-22T06:23:04.647Z,53.80
2019-01-22T06:24:04.671Z,59.20
2019-01-22T06:25:04.708Z,57.20
2019-01-22T06:26:04.733Z,63.20
2019-01-22T06:27:04.761Z,60.30
2019-01-22T06:28:04.791Z,63.70
2019-01-22T06:29:04.821Z,65.70
2019-01-22T06:30:04.854Z,63.70
2019-01-22T06:31:04.884Z,69.30
2019-01-22T06:32:04.927Z,62.10
2019-01-22T06:33:04.945Z,62.40
2019-01-22T06:34:04.998Z,58.40
2019-01-22T06:35:05.017Z,64.00
2019-01-22T06:36:05.040Z,56.40
2019-01-22T06:37:05.070Z,60.50
2019-01-22T06:38:05.104Z,61.90
2019-01-22T06:39:05.133Z,60.40
2019-01-22T06:40:05.168Z,56.60
2019-01-22T06:41:05.202Z,58.90
2019-01-22T06:42:05.223Z,53.70
2019-01-22T06:43:05.256Z,59.20
2019-01-22T06:44:05.285Z,53.30
2019-01-22T06:45:05.317Z,53.50
2019-01-22T06:46:05.347Z,54.30
2019-01-22T06:47:05.378Z,58.10
2019-01-22T06:48:05.422Z,57.20
2019-01-22T06:49:05.481Z,53.90
2019-01-22T06:50:05.471Z,57.50
2019-01-22T06:51:05.502Z,57.60
2019-01-22T06:52:05.540Z,55.10
2019-01-22T06:53:05.563Z,58.50
2019-01-22T06:54:05.597Z,51.80
2019-01-22T06:55:05.627Z,52.20
2019-01-22T06:56:05.665Z,57.80
2019-01-22T06:57:05.691Z,57.30
2019-01-22T06:58:05.725Z,55.40
2019-01-22T06:59:05.753Z,52.90
2019-01-22T07:00:05.782Z,57.50
2019-01-22T07:01:05.816Z,54.50
2019-01-22T07:02:05.851Z,56.70
2019-01-22T07:03:05.874Z,55.80
2019-01-22T07:04:05.905Z,53.20
2019-01-22T07:05:05.936Z,55.20
2019-01-22T07:06:05.969Z,53.00
2019-01-22T07:07:05.996Z,53.40
2019-01-22T07:08:06.030Z,54.10
2019-01-22T07:09:06.066Z,53.50
2019-01-22T07:10:06.099Z,56.50
2019-01-22T07:11:06.121Z,55.40
2019-01-22T07:12:06.153Z,51.10
2019-01-22T07:13:06.185Z,52.40
2019-01-22T07:14:06.222Z,54.00
2019-01-22T07:15:06.264Z,52.50
2019-01-22T07:16:06.290Z,53.80
2019-01-22T07:17:06.312Z,55.00
2019-01-22T07:18:06.338Z,52.90
2019-01-22T07:19:06.371Z,49.50
2019-01-22T07:20:06.401Z,56.10
2019-01-22T07:21:06.430Z,55.10
2019-01-22T07:22:06.461Z,54.70
2019-01-22T07:23:06.492Z,59.20
2019-01-22T07:24:06.624Z,55.30
2019-01-22T07:25:06.555Z,57.10
2019-01-22T07:26:06.591Z,56.30
2019-01-22T07:27:06.619Z,54.50
2019-01-22T07:28:06.648Z,55.20
2019-01-22T07:29:06.690Z,57.40
2019-01-22T07:30:06.708Z,60.30
2019-01-22T07:31:06.748Z,56.40
2019-01-22T07:32:06.777Z,58.70
2019-01-22T07:33:06.801Z,55.20
2019-01-22T07:34:06.832Z,56.70
2019-01-22T07:35:06.869Z,55.00
2019-01-22T07:36:06.896Z,57.30
2019-01-22T07:37:06.927Z,55.30
2019-01-22T07:38:06.961Z,55.40
2019-01-22T07:39:06.991Z,56.60
2019-01-22T07:40:07.020Z,53.60
2019-01-22T07:41:07.051Z,55.10
2019-01-22T07:42:07.092Z,55.90
2019-01-22T07:43:08.421Z,54.40
2019-01-22T07:44:07.144Z,55.00
2019-01-22T07:45:07.175Z,55.30
2019-01-22T07:46:07.211Z,61.40
2019-01-22T07:47:07.245Z,61.80
2019-01-22T07:48:07.269Z,58.00
2019-01-22T07:49:07.301Z,59.70
2019-01-22T07:50:07.331Z,62.50
2019-01-22T07:51:07.363Z,56.20
2019-01-22T07:52:07.394Z,58.30
2019-01-22T07:53:07.435Z,58.90
2019-01-22T07:54:07.455Z,56.70
2019-01-22T07:55:07.495Z,60.10
2019-01-22T07:56:07.519Z,61.70
2019-01-22T07:57:07.551Z,61.60
2019-01-22T07:58:07.584Z,65.70
2019-01-22T07:59:07.610Z,68.00
2019-01-22T08:00:07.643Z,65.60
2019-01-22T08:01:07.672Z,61.80
2019-01-22T08:02:07.703Z,66.80
2019-01-22T08:03:07.735Z,60.40
2019-01-22T08:04:07.767Z,62.00
2019-01-22T08:05:07.797Z,63.60
2019-01-22T08:06:07.827Z,60.60
2019-01-22T08:07:07.860Z,58.10
2019-01-22T08:08:07.892Z,62.30
2019-01-22T08:09:07.923Z,57.20
2019-01-22T08:10:07.953Z,60.50
2019-01-22T08:11:07.985Z,61.10
2019-01-22T08:12:08.018Z,58.70
2019-01-22T08:13:08.050Z,57.20
2019-01-22T08:14:08.079Z,55.60
2019-01-22T08:15:08.116Z,53.10
2019-01-22T08:16:08.149Z,57.20
2019-01-22T08:17:08.224Z,55.40
2019-01-22T08:18:08.207Z,54.70
2019-01-22T08:19:08.253Z,57.00
2019-01-22T08:20:08.268Z,57.10
2019-01-22T08:21:08.298Z,50.90
2019-01-22T08:22:08.481Z,52.70
2019-01-22T08:23:08.363Z,53.70
2019-01-22T08:24:08.401Z,51.40
2019-01-22T08:25:08.425Z,53.60
2019-01-22T08:26:08.458Z,51.50
2019-01-22T08:27:08.491Z,52.50
2019-01-22T08:28:08.521Z,55.50
2019-01-22T08:29:08.553Z,57.60
2019-01-22T08:30:08.592Z,55.30
2019-01-22T08:31:08.617Z,51.20
2019-01-22T08:32:08.650Z,52.10
2019-01-22T08:33:08.688Z,51.80
2019-01-22T08:34:08.712Z,52.50
2019-01-22T08:35:08.744Z,52.60
2019-01-22T08:36:08.885Z,52.30
2019-01-22T08:37:08.810Z,49.70
2019-01-22T08:38:08.841Z,51.20
2019-01-22T08:39:08.871Z,50.90
2019-01-22T08:40:08.903Z,52.10
2019-01-22T08:41:08.946Z,58.50
2019-01-22T08:42:08.967Z,52.70
2019-01-22T08:43:08.999Z,53.50
2019-01-22T08:44:09.031Z,58.20
2019-01-22T08:45:09.062Z,55.80
2019-01-22T08:46:09.094Z,57.00
2019-01-22T08:47:09.128Z,57.40
2019-01-22T08:48:09.168Z,54.90
2019-01-22T08:49:09.191Z,60.20
2019-01-22T08:50:09.223Z,56.70
2019-01-22T08:51:09.258Z,55.00
2019-01-22T08:52:09.293Z,54.50
2019-01-22T08:53:09.321Z,55.60
2019-01-22T08:54:09.352Z,54.40
2019-01-22T08:55:09.386Z,53.30
2019-01-22T08:56:09.419Z,53.00
2019-01-22T08:57:09.454Z,51.00
2019-01-22T08:58:09.483Z,51.20
2019-01-22T08:59:09.514Z,53.90
2019-01-22T09:00:09.548Z,53.00
2019-01-22T09:01:09.580Z,52.80
2019-01-22T09:02:09.610Z,57.30
2019-01-22T09:03:09.645Z,55.40
2019-01-22T09:04:09.677Z,52.70
2019-01-22T09:05:09.710Z,56.90
2019-01-22T09:06:09.744Z,56.50
2019-01-22T09:07:09.779Z,58.20
2019-01-22T09:08:10.049Z,58.20
2019-01-22T09:09:09.848Z,54.70
2019-01-22T09:10:09.881Z,52.50
2019-01-22T09:11:09.904Z,52.90
2019-01-22T09:12:10.195Z,54.40
2019-01-22T09:13:09.973Z,49.60
2019-01-22T09:14:10.014Z,50.90
2019-01-22T09:15:10.038Z,52.20
2019-01-22T09:16:10.069Z,52.20
2019-01-22T09:17:10.102Z,53.40
2019-01-22T09:18:10.136Z,48.90
2019-01-22T09:19:10.167Z,49.30
2019-01-22T09:20:10.201Z,48.90
2019-01-22T09:21:10.236Z,55.90
2019-01-22T09:22:10.267Z,51.90
2019-01-22T09:23:10.307Z,50.60
2019-01-22T09:24:10.331Z,52.40
2019-01-22T09:25:14.719Z,56.20
2019-01-22T09:26:10.398Z,54.00
2019-01-22T09:27:10.430Z,49.80
2019-01-22T09:28:10.466Z,50.70
2019-01-22T09:29:10.506Z,52.50
2019-01-22T09:30:10.532Z,54.30
2019-01-22T09:31:10.580Z,51.70
2019-01-22T09:32:10.598Z,55.00
2019-01-22T09:33:10.628Z,54.60
2019-01-22T09:34:10.663Z,54.70
2019-01-22T09:35:10.775Z,52.70
2019-01-22T09:36:10.730Z,56.90
2019-01-22T09:37:10.765Z,54.00
2019-01-22T09:38:10.805Z,53.60
2019-01-22T09:39:10.840Z,53.70
2019-01-22T09:40:10.872Z,57.20
2019-01-22T09:41:10.896Z,52.90
2019-01-22T09:42:10.929Z,56.40
2019-01-22T09:43:11.113Z,57.30
2019-01-22T09:44:11.002Z,57.10
2019-01-22T09:45:11.031Z,61.00
2019-01-22T09:46:11.065Z,53.40
2019-01-22T09:47:11.097Z,52.50
2019-01-22T09:48:11.131Z,54.30
2019-01-22T09:49:11.165Z,54.70
2019-01-22T09:50:11.198Z,55.90
2019-01-22T09:51:11.234Z,51.20
2019-01-22T09:52:11.265Z,54.10
2019-01-22T09:53:11.305Z,53.20
2019-01-22T09:54:11.334Z,56.30
2019-01-22T09:55:11.366Z,58.10
2019-01-22T09:56:11.400Z,56.10
2019-01-22T09:57:11.434Z,56.70
2019-01-22T09:58:11.467Z,55.60
2019-01-22T09:59:11.502Z,54.70
2019-01-22T10:00:11.536Z,53.50
2019-01-22T10:01:11.578Z,61.70
2019-01-22T10:02:11.601Z,58.00
2019-01-22T10:03:11.641Z,55.70
2019-01-22T10:04:11.670Z,56.60
2019-01-22T10:05:11.711Z,56.00
2019-01-22T10:06:11.753Z,54.80
2019-01-22T10:07:11.823Z,50.10
2019-01-22T10:08:11.808Z,52.40
2019-01-22T10:09:11.839Z,53.50
2019-01-22T10:10:11.873Z,55.00
2019-01-22T10:11:11.915Z,50.50
2019-01-22T10:12:11.945Z,51.40
2019-01-22T10:13:11.975Z,49.00
2019-01-22T10:14:12.008Z,50.40
2019-01-22T10:15:12.044Z,50.00
2019-01-22T10:16:12.089Z,51.80
2019-01-22T10:17:12.673Z,52.30
2019-01-22T10:18:12.153Z,53.20
2019-01-22T10:19:12.185Z,51.90
2019-01-22T10:20:12.217Z,49.90
2019-01-22T10:21:12.249Z,49.20
2019-01-22T10:22:12.285Z,51.40
2019-01-22T10:23:12.320Z,48.60
2019-01-22T10:24:12.354Z,51.20
2019-01-22T10:25:12.395Z,51.00
2019-01-22T10:26:12.423Z,52.20
2019-01-22T10:27:12.456Z,50.30
2019-01-22T10:28:12.490Z,53.20
2019-01-22T10:29:12.524Z,48.90
2019-01-22T10:30:12.559Z,53.20
2019-01-22T10:31:12.593Z,54.20
2019-01-22T10:32:12.629Z,51.40
2019-01-22T10:33:12.663Z,55.10
2019-01-22T10:34:12.699Z,52.10
2019-01-22T10:35:12.737Z,54.80
2019-01-22T10:36:12.765Z,51.50
2019-01-22T10:37:12.800Z,53.10
2019-01-22T10:38:12.845Z,52.70
2019-01-22T10:39:12.870Z,51.50
2019-01-22T10:40:12.906Z,57.90
2019-01-22T10:41:12.939Z,51.80
2019-01-22T10:42:12.974Z,53.00
2019-01-22T10:43:13.010Z,50.10
2019-01-22T10:44:13.050Z,55.30
2019-01-22T10:45:13.079Z,54.70
2019-01-22T10:46:13.118Z,53.50
2019-01-22T10:47:13.149Z,50.60
2019-01-22T10:48:13.186Z,54.40
2019-01-22T10:49:13.226Z,51.00
2019-01-22T10:50:13.251Z,52.00
2019-01-22T10:51:13.289Z,63.90
2019-01-22T10:52:13.323Z,72.70
2019-01-22T10:53:13.358Z,59.60
2019-01-22T10:54:13.392Z,56.30
2019-01-22T10:55:13.431Z,53.70
2019-01-22T10:56:13.464Z,52.90
2019-01-22T10:57:13.499Z,54.40
2019-01-22T10:58:13.534Z,51.20
2019-01-22T10:59:13.571Z,50.20
2019-01-22T11:00:13.607Z,54.80
2019-01-22T11:01:13.638Z,52.00
2019-01-22T11:02:13.672Z,53.50
2019-01-22T11:03:13.709Z,53.80
2019-01-22T11:04:13.843Z,51.60
2019-01-22T11:05:13.778Z,47.80
2019-01-22T11:06:13.814Z,48.50
2019-01-22T11:07:13.857Z,50.70
2019-01-22T11:08:13.884Z,49.70
2019-01-22T11:09:13.917Z,52.40
2019-01-22T11:10:13.952Z,47.70
2019-01-22T11:11:13.996Z,48.80
2019-01-22T11:12:14.024Z,50.30
2019-01-22T11:13:14.059Z,49.40
2019-01-22T11:14:14.095Z,52.50
2019-01-22T11:15:14.132Z,50.20
2019-01-22T11:16:15.131Z,49.60
2019-01-22T11:17:14.202Z,49.60
2019-01-22T11:18:14.235Z,48.30
2019-01-22T11:19:14.271Z,49.30
2019-01-22T11:20:14.307Z,51.90
2019-01-22T11:21:14.340Z,48.40
2019-01-22T11:22:14.375Z,48.90
2019-01-22T11:23:14.417Z,50.20
2019-01-22T11:24:14.446Z,45.40
2019-01-22T11:25:14.485Z,49.40
2019-01-22T11:26:14.517Z,49.30
2019-01-22T11:27:14.552Z,48.50
2019-01-22T11:28:14.587Z,46.20
2019-01-22T11:29:14.625Z,49.50
2019-01-22T11:30:14.661Z,47.10
2019-01-22T11:31:14.695Z,50.40
2019-01-22T11:32:14.737Z,46.80
2019-01-22T11:33:14.762Z,48.50
2019-01-22T11:34:14.799Z,48.40
2019-01-22T11:35:14.835Z,50.50
2019-01-22T11:36:14.886Z,48.60
2019-01-22T11:37:14.903Z,49.50
2019-01-22T11:38:14.946Z,55.10
2019-01-22T11:39:14.974Z,51.20
2019-01-22T11:40:15.010Z,50.60
2019-01-22T11:41:15.043Z,47.80
2019-01-22T11:42:15.079Z,48.90
2019-01-22T11:43:15.114Z,48.50
2019-01-22T11:44:15.149Z,48.20
2019-01-22T11:45:15.183Z,50.40
2019-01-22T11:46:15.219Z,48.20
2019-01-22T11:47:15.262Z,49.20
2019-01-22T11:48:15.291Z,51.20
2019-01-22T11:49:15.326Z,51.80
2019-01-22T11:50:15.360Z,50.10
2019-01-22T11:51:15.409Z,52.30
2019-01-22T11:52:15.434Z,50.30
2019-01-22T11:53:15.467Z,55.40
2019-01-22T11:54:15.512Z,51.90
2019-01-22T11:55:15.538Z,52.10
2019-01-22T11:56:15.575Z,52.90
2019-01-22T11:57:15.606Z,52.80
2019-01-22T11:58:15.647Z,54.60
2019-01-22T11:59:15.678Z,51.50
2019-01-22T12:00:15.715Z,50.50
2019-01-22T12:01:15.751Z,51.50
2019-01-22T12:02:15.785Z,50.90
2019-01-22T12:03:15.821Z,54.00
2019-01-22T12:04:15.867Z,50.10
2019-01-22T12:05:15.900Z,49.00
2019-01-22T12:06:15.927Z,50.20
2019-01-22T12:07:15.983Z,50.00
2019-01-22T12:08:15.997Z,50.80
2019-01-22T12:09:16.036Z,50.00
2019-01-22T12:10:16.068Z,49.60
2019-01-22T12:11:16.102Z,49.40
2019-01-22T12:12:16.143Z,51.90
2019-01-22T12:13:16.174Z,50.70
2019-01-22T12:14:16.210Z,52.20
2019-01-22T12:15:16.252Z,48.50
2019-01-22T12:16:16.282Z,47.70
2019-01-22T12:17:16.314Z,49.70
2019-01-22T12:18:16.351Z,48.60
2019-01-22T12:19:16.386Z,51.30
2019-01-22T12:20:16.424Z,47.60
2019-01-22T12:21:16.456Z,50.40
2019-01-22T12:22:16.500Z,49.80
2019-01-22T12:23:16.532Z,47.80
2019-01-22T12:24:16.565Z,49.30
2019-01-22T12:25:16.606Z,47.80
2019-01-22T12:26:16.635Z,47.60
2019-01-22T12:27:16.670Z,49.80
2019-01-22T12:28:16.714Z,48.00
2019-01-22T12:29:16.742Z,45.90
2019-01-22T12:30:16.777Z,45.90
2019-01-22T12:31:16.814Z,46.10
2019-01-22T12:32:16.848Z,50.40
2019-01-22T12:33:16.885Z,48.30
2019-01-22T12:34:16.918Z,46.50
2019-01-22T12:35:16.956Z,48.70
2019-01-22T12:36:16.990Z,45.40
2019-01-22T12:37:17.026Z,49.30
2019-01-22T12:38:17.065Z,47.60
2019-01-22T12:39:17.096Z,47.90
2019-01-22T12:40:17.133Z,45.60
2019-01-22T12:41:17.167Z,46.90
2019-01-22T12:42:17.207Z,49.20
2019-01-22T12:43:17.238Z,47.20
2019-01-22T12:44:17.273Z,48.50
2019-01-22T12:45:17.312Z,47.00
2019-01-22T12:46:17.352Z,47.20
2019-01-22T12:47:17.379Z,47.30
2019-01-22T12:48:17.415Z,47.30
2019-01-22T12:49:17.459Z,49.70
2019-01-22T12:50:17.487Z,49.10
2019-01-22T12:51:17.522Z,45.60
2019-01-22T12:52:17.559Z,46.00
2019-01-22T12:53:17.591Z,50.00